Time;durP1;ratioP1;P1;durP2;ratioP2;P2;SDS_P1;SDS_P2;PMS_P1;PMS_P2;Temp;Humidity;BMP_temperature;BMP_pressure;BME280_temperature;BME280_humidity;BME280_pressure;Samples;Min_cycle;Max_cycle;Signal;HPM_P1;HPM_P2
2023/03/18 00:02:07;;;;;;;0.10;0.10;;;;;;;13.01;60.34;100837.88;5088033;28;20103;-81
2023/03/18 00:04:34;;;;;;;0.03;0.03;;;;;;;12.97;60.02;100831.75;5089146;28;20025;-80
2023/03/18 00:07:00;;;;;;;0.10;0.10;;;;;;;12.97;60.38;100830.91;5083223;28;20036;-80
2023/03/18 00:09:26;;;;;;;0.10;0.10;;;;;;;12.94;60.17;100831.88;5104675;28;20050;-81
2023/03/18 00:11:55;;;;;;;0.10;0.10;;;;;;;12.89;60.69;100841.78;5089388;28;20022;-80
2023/03/18 00:14:22;;;;;;;0.00;0.00;;;;;;;12.82;60.87;100843.72;5089625;28;20024;-81
2023/03/18 00:16:48;;;;;;;0.40;0.40;;;;;;;12.75;61.20;100839.53;5091905;28;20392;-79
2023/03/18 00:19:14;;;;;;;0.05;0.05;;;;;;;12.70;60.41;100837.00;5093438;28;20024;-81
2023/03/18 00:21:40;;;;;;;0.10;0.10;;;;;;;12.64;61.21;100841.63;5093218;28;20385;-81
2023/03/18 00:24:08;;;;;;;0.10;0.10;;;;;;;12.59;60.67;100847.06;5099262;28;20032;-80
2023/03/18 00:26:35;;;;;;;0.00;0.00;;;;;;;12.53;62.37;100855.22;5101216;28;20550;-80
2023/03/18 00:29:01;;;;;;;0.10;0.10;;;;;;;12.49;62.07;100843.78;5093480;28;20540;-80
2023/03/18 00:31:28;;;;;;;0.25;0.25;;;;;;;12.48;61.59;100850.00;5093989;28;20038;-83
2023/03/18 00:33:55;;;;;;;0.05;0.05;;;;;;;12.47;62.89;100848.28;5088865;28;20031;-80
2023/03/18 00:36:24;;;;;;;0.10;0.10;;;;;;;12.46;62.65;100847.41;5093192;28;20019;-80
2023/03/18 00:38:56;;;;;;;0.35;0.35;;;;;;;12.46;63.38;100847.41;5091977;28;20032;-81
2023/03/18 00:41:23;;;;;;;0.10;0.10;;;;;;;12.47;62.58;100840.28;5094739;28;20031;-80
2023/03/18 00:43:51;;;;;;;0.10;0.10;;;;;;;12.45;63.26;100842.16;5098349;28;20024;-82
2023/03/18 00:46:23;;;;;;;3.08;1.35;;;;;;;12.46;62.98;100843.88;5096169;28;20023;-81
2023/03/18 00:48:51;;;;;;;0.10;0.10;;;;;;;12.48;63.11;100835.88;5103659;28;20098;-80
2023/03/18 00:51:19;;;;;;;0.40;0.40;;;;;;;12.48;62.65;100842.03;5092456;28;20027;-80
2023/03/18 00:53:50;;;;;;;0.20;0.20;;;;;;;12.51;62.92;100836.66;5095712;28;20107;-80
2023/03/18 00:56:19;;;;;;;0.08;0.08;;;;;;;12.53;62.19;100834.81;5088746;28;20044;-81
2023/03/18 00:58:46;;;;;;;0.10;0.10;;;;;;;12.56;62.48;100840.06;5094172;28;20035;-80
2023/03/18 01:01:14;;;;;;;0.10;0.10;;;;;;;12.58;62.47;100830.22;5094501;28;20020;-81
2023/03/18 01:03:41;;;;;;;0.00;0.00;;;;;;;12.60;62.31;100831.06;5086820;28;20384;-82
2023/03/18 01:06:10;;;;;;;0.28;0.28;;;;;;;12.62;63.12;100831.91;5083918;28;20500;-81
2023/03/18 01:08:37;;;;;;;0.10;0.10;;;;;;;12.64;63.64;100828.34;5088106;28;20024;-81
2023/03/18 01:11:04;;;;;;;0.10;0.10;;;;;;;12.66;63.40;100835.34;5090205;28;20103;-81
2023/03/18 01:13:31;;;;;;;0.10;0.10;;;;;;;12.68;63.02;100829.97;5092628;28;20400;-82
2023/03/18 01:15:57;;;;;;;0.65;0.65;;;;;;;12.67;62.94;100831.75;5093952;28;20032;-81
2023/03/18 01:18:23;;;;;;;0.00;0.00;;;;;;;12.68;62.64;100833.50;5092637;28;20086;-82
2023/03/18 01:20:50;;;;;;;1.33;1.27;;;;;;;12.68;62.64;100835.31;5093588;28;20076;-82
2023/03/18 01:23:16;;;;;;;0.10;0.10;;;;;;;12.65;62.38;100830.06;5092012;28;20059;-82
2023/03/18 01:25:44;;;;;;;0.57;0.57;;;;;;;12.63;62.59;100840.75;5086028;28;20479;-82
2023/03/18 01:28:12;;;;;;;0.25;0.25;;;;;;;12.62;62.28;100839.88;5085557;28;20019;-81
2023/03/18 01:30:38;;;;;;;0.10;0.10;;;;;;;12.63;62.72;100843.41;5091163;28;20392;-82
2023/03/18 01:33:06;;;;;;;0.10;0.10;;;;;;;12.62;63.54;100839.00;5083883;28;20461;-82
2023/03/18 01:35:34;;;;;;;0.10;0.10;;;;;;;12.62;63.89;100845.19;5087439;28;20017;-82
2023/03/18 01:38:03;;;;;;;0.10;0.10;;;;;;;12.60;64.38;100852.34;5090018;28;20400;-82
2023/03/18 01:40:32;;;;;;;0.10;0.10;;;;;;;12.61;64.39;100854.09;5086764;28;20060;-82
2023/03/18 01:43:12;;;;;;;1.98;0.40;;;;;;;12.62;64.18;100854.94;5086810;28;20055;-81
2023/03/18 01:45:39;;;;;;;0.85;0.85;;;;;;;12.58;64.26;100854.16;5092141;28;20021;-82
2023/03/18 01:48:06;;;;;;;0.10;0.10;;;;;;;12.59;64.50;100845.28;5091244;28;20024;-82
2023/03/18 01:50:35;;;;;;;0.00;0.00;;;;;;;12.60;64.20;100840.84;5085429;28;20024;-82
2023/03/18 01:53:05;;;;;;;0.00;0.00;;;;;;;12.61;64.05;100840.78;5090084;28;20040;-81
2023/03/18 01:55:33;;;;;;;0.10;0.10;;;;;;;12.61;64.65;100840.78;5084138;28;20050;-81
2023/03/18 01:58:03;;;;;;;0.10;0.10;;;;;;;12.64;63.96;100847.81;5094710;28;20024;-82
2023/03/18 02:00:30;;;;;;;0.10;0.10;;;;;;;12.65;64.03;100843.34;5086677;28;20413;-81
2023/03/18 02:02:57;;;;;;;0.10;0.10;;;;;;;12.66;63.80;100845.97;5094922;28;20033;-82
2023/03/18 02:05:27;;;;;;;0.75;0.75;;;;;;;12.69;63.65;100847.69;5085255;28;20078;-81
2023/03/18 02:07:53;;;;;;;0.10;0.10;;;;;;;12.70;64.46;100844.13;5078258;28;20028;-82
2023/03/18 02:10:23;;;;;;;0.10;0.10;;;;;;;12.71;63.56;100844.06;5086564;28;20082;-81
2023/03/18 02:12:56;;;;;;;0.10;0.10;;;;;;;12.71;63.97;100844.06;5082731;28;20028;-81
2023/03/18 02:15:26;;;;;;;1.45;1.35;;;;;;;12.71;65.19;100853.81;5094884;28;20024;-81
2023/03/18 02:17:59;;;;;;;0.88;0.88;;;;;;;12.74;64.29;100861.72;5079278;28;20111;-82
2023/03/18 02:23:32;;;;;;;0.20;0.20;;;;;;;12.78;64.75;100855.38;5065295;28;20406;-81
2023/03/18 02:26:23;;;;;;;0.10;0.10;;;;;;;12.79;64.11;100855.31;5066035;28;20033;-82
2023/03/18 02:28:56;;;;;;;0.43;0.43;;;;;;;12.79;64.71;100857.97;5059691;28;20450;-82
2023/03/18 02:31:22;;;;;;;;;;;;;;;12.89;64.39;100858.59;5063429;28;20029;-82
2023/03/18 02:33:48;;;;;;;0.00;0.00;;;;;;;12.79;64.85;100857.13;5065241;28;19912;-81
2023/03/18 02:36:22;;;;;;;0.00;0.00;;;;;;;12.79;65.23;100865.09;5067104;28;20425;-80
2023/03/18 02:38:49;;;;;;;0.30;0.30;;;;;;;12.76;65.09;100865.16;5057978;28;20033;-81
2023/03/18 02:41:20;;;;;;;0.10;0.10;;;;;;;12.75;65.29;100861.66;5055197;28;20036;-81
2023/03/18 02:43:47;;;;;;;0.20;0.20;;;;;;;12.72;65.67;100855.56;5064715;28;21326;-82
2023/03/18 02:46:46;;;;;;;0.00;0.00;;;;;;;12.77;65.28;100856.28;5062338;28;20070;-80
2023/03/18 02:49:13;;;;;;;2.53;0.50;;;;;;;12.71;65.10;100864.44;5067898;28;20033;-80
2023/03/18 02:51:40;;;;;;;0.17;0.17;;;;;;;12.69;65.82;100860.97;5066412;28;20051;-80
2023/03/18 02:54:13;;;;;;;0.10;0.10;;;;;;;12.69;66.07;100859.16;5064100;28;20033;-80
2023/03/18 02:56:41;;;;;;;0.10;0.10;;;;;;;12.70;65.78;100865.38;5064081;28;20051;-80
2023/03/18 02:59:08;;;;;;;0.47;0.47;;;;;;;12.71;64.92;100856.47;5061596;28;20024;-81
2023/03/18 03:01:36;;;;;;;0.17;0.17;;;;;;;12.71;65.25;100859.13;5064146;28;20366;-81
2023/03/18 03:04:03;;;;;;;0.13;0.13;;;;;;;12.70;65.94;100860.06;5062744;28;20033;-82
2023/03/18 03:06:30;;;;;;;0.03;0.03;;;;;;;12.71;66.19;100861.78;5058558;28;20032;-82
2023/03/18 03:08:56;;;;;;;0.35;0.35;;;;;;;12.73;65.50;100867.94;5065526;28;20036;-82
2023/03/18 03:11:23;;;;;;;1.10;0.52;;;;;;;12.72;66.23;100866.19;5060299;28;20036;-82
2023/03/18 03:13:49;;;;;;;1.65;0.45;;;;;;;12.72;66.12;100874.16;5062550;28;20048;-82
2023/03/18 03:16:17;;;;;;;0.00;0.00;;;;;;;12.72;65.92;100871.50;5059222;28;20029;-84
2023/03/18 03:18:44;;;;;;;0.52;0.52;;;;;;;12.73;66.34;100866.13;5066919;28;20437;-84
2023/03/18 03:21:11;;;;;;;0.10;0.10;;;;;;;12.74;66.81;100865.22;5060753;28;20441;-84
2023/03/18 03:23:38;;;;;;;7.05;0.98;;;;;;;12.78;65.77;100868.66;5064169;28;21379;-84
2023/03/18 03:26:05;;;;;;;0.10;0.10;;;;;;;12.79;66.27;100867.75;5064223;28;20029;-84
2023/03/18 03:28:33;;;;;;;0.35;0.35;;;;;;;12.82;65.53;100870.31;5059461;28;20370;-84
2023/03/18 03:31:00;;;;;;;0.10;0.10;;;;;;;12.81;66.36;100879.22;5064079;28;20033;-84
2023/03/18 03:33:26;;;;;;;0.90;0.90;;;;;;;12.79;66.95;100886.38;5057505;28;20059;-83
2023/03/18 03:35:53;;;;;;;0.25;0.25;;;;;;;12.79;66.73;100883.72;5050813;28;20404;-82
2023/03/18 03:38:19;;;;;;;0.10;0.10;;;;;;;12.80;66.22;100890.78;5045374;28;20562;-83
2023/03/18 03:40:46;;;;;;;0.70;0.68;;;;;;;12.79;66.72;100891.69;5048417;28;20048;-84
2023/03/18 03:43:14;;;;;;;0.65;0.65;;;;;;;12.78;67.18;100893.50;5045652;28;20389;-83
2023/03/18 03:45:41;;;;;;;0.10;0.10;;;;;;;12.80;66.65;100896.09;5045287;28;20025;-83
2023/03/18 03:48:08;;;;;;;14.77;2.38;;;;;;;12.78;67.80;100895.25;5052543;28;20036;-83
2023/03/18 03:50:35;;;;;;;1.17;0.40;;;;;;;12.73;68.53;100894.53;5051557;28;20033;-83
2023/03/18 03:53:03;;;;;;;1.05;1.00;;;;;;;12.71;68.72;100897.22;5046377;28;20029;-83
2023/03/18 03:55:30;;;;;;;0.47;0.47;;;;;;;12.69;68.42;100891.06;5044925;28;20037;-82
2023/03/18 03:57:56;;;;;;;0.20;0.20;;;;;;;12.72;67.31;100903.41;5048536;28;20039;-83
2023/03/18 04:00:23;;;;;;;0.20;0.20;;;;;;;12.70;68.10;100895.47;5048074;28;20048;-84
2023/03/18 04:02:51;;;;;;;0.03;0.03;;;;;;;12.67;69.36;100892.03;5043856;28;20136;-82
2023/03/18 04:05:21;;;;;;;0.65;0.65;;;;;;;12.70;68.16;100890.16;5047688;28;20060;-82
2023/03/18 04:07:48;;;;;;;0.10;0.10;;;;;;;12.68;69.53;100896.44;5052674;28;20029;-81
2023/03/18 04:10:17;;;;;;;0.47;0.47;;;;;;;12.67;69.75;100894.69;5049265;28;20084;-81
2023/03/18 04:12:45;;;;;;;0.00;0.00;;;;;;;12.68;69.72;100891.13;5046977;28;20017;-82
2023/03/18 04:15:13;;;;;;;0.13;0.13;;;;;;;12.69;69.31;100890.22;5050542;28;20049;-82
2023/03/18 04:17:39;;;;;;;0.22;0.22;;;;;;;12.69;69.64;100891.06;5048502;28;20025;-82
2023/03/18 04:20:06;;;;;;;0.25;0.25;;;;;;;12.69;69.58;100892.88;5046427;28;20140;-81
2023/03/18 04:22:32;;;;;;;0.17;0.17;;;;;;;12.66;70.07;100887.63;5039248;28;20442;-82
2023/03/18 04:24:59;;;;;;;0.10;0.10;;;;;;;12.65;69.77;100892.09;5047700;28;20072;-82
2023/03/18 04:27:26;;;;;;;0.25;0.25;;;;;;;12.64;70.06;100898.31;5049641;28;20563;-83
2023/03/18 04:29:53;;;;;;;0.30;0.30;;;;;;;12.64;69.57;100895.66;5052849;28;20446;-82
2023/03/18 04:32:20;;;;;;;0.10;0.10;;;;;;;12.61;70.57;100901.94;5045049;28;20035;-82
2023/03/18 04:34:46;;;;;;;2.42;0.50;;;;;;;12.63;69.25;100893.91;5051869;28;20068;-82
2023/03/18 04:37:13;;;;;;;0.10;0.10;;;;;;;12.62;70.14;100903.69;5048673;28;20029;-81
2023/03/18 04:39:40;;;;;;;0.10;0.10;;;;;;;12.65;70.21;100917.78;5045777;28;20039;-82
2023/03/18 04:42:07;;;;;;;0.10;0.10;;;;;;;12.60;71.62;100918.78;5045085;28;20021;-82
2023/03/18 04:44:33;;;;;;;0.10;0.10;;;;;;;12.63;70.28;100931.13;5051089;28;20438;-82
2023/03/18 04:47:00;;;;;;;0.20;0.20;;;;;;;12.61;70.30;100933.81;5045594;28;20021;-82
2023/03/18 04:49:26;;;;;;;0.10;0.10;;;;;;;12.59;71.33;100946.28;5053695;28;20520;-82
2023/03/18 04:51:52;;;;;;;5.15;0.63;;;;;;;12.61;70.76;100941.81;5048830;28;20033;-82
2023/03/18 04:54:18;;;;;;;0.35;0.35;;;;;;;12.51;71.31;100942.06;5039318;28;20033;-82
2023/03/18 04:56:45;;;;;;;0.20;0.20;;;;;;;12.57;71.08;100948.13;5050223;28;20048;-82
2023/03/18 04:59:11;;;;;;;0.10;0.10;;;;;;;12.59;71.78;100948.06;5041602;28;20039;-82
2023/03/18 05:01:37;;;;;;;0.10;0.10;;;;;;;12.64;70.38;100945.28;5043995;28;20025;-83
2023/03/18 05:04:05;;;;;;;0.10;0.10;;;;;;;12.66;70.61;100947.00;5046805;28;20036;-83
2023/03/18 05:06:32;;;;;;;0.20;0.20;;;;;;;12.66;70.14;100944.34;5048837;28;20059;-82
2023/03/18 05:08:59;;;;;;;0.10;0.10;;;;;;;12.66;70.77;100962.06;5045227;28;20113;-83
2023/03/18 05:11:27;;;;;;;0.10;0.10;;;;;;;12.65;71.23;100965.63;5036244;28;20040;-82
2023/03/18 05:13:53;;;;;;;0.85;0.85;;;;;;;12.65;70.67;100960.31;5045194;28;20073;-83
2023/03/18 05:16:19;;;;;;;0.13;0.13;;;;;;;12.65;70.11;100962.97;5045081;28;20049;-82
2023/03/18 05:18:45;;;;;;;0.10;0.10;;;;;;;12.62;70.89;100961.25;5047546;28;20036;-81
2023/03/18 05:21:11;;;;;;;0.10;0.10;;;;;;;12.58;70.95;100960.47;5042670;28;20090;-82
2023/03/18 05:23:38;;;;;;;0.10;0.10;;;;;;;12.59;71.01;100956.03;5053275;28;20389;-83
2023/03/18 05:26:05;;;;;;;0.10;0.10;;;;;;;12.57;70.97;100958.75;5049284;28;20036;-83
2023/03/18 05:28:32;;;;;;;0.55;0.55;;;;;;;12.58;69.73;100959.59;5052379;28;20025;-83
2023/03/18 05:30:59;;;;;;;0.85;0.60;;;;;;;12.56;70.75;100950.78;5052651;28;20033;-82
2023/03/18 05:33:25;;;;;;;0.10;0.10;;;;;;;12.55;70.36;100955.25;5053314;28;20028;-81
2023/03/18 05:35:51;;;;;;;0.00;0.00;;;;;;;12.51;70.61;100956.25;5052723;28;20113;-82
2023/03/18 05:38:17;;;;;;;0.10;0.10;;;;;;;12.48;70.85;100953.66;5050223;28;20107;-82
2023/03/18 05:40:44;;;;;;;0.28;0.28;;;;;;;12.44;70.97;100962.63;5044114;28;20033;-82
2023/03/18 05:43:10;;;;;;;0.10;0.10;;;;;;;12.42;70.99;100965.34;5045940;28;20040;-83
2023/03/18 05:45:37;;;;;;;0.00;0.00;;;;;;;12.42;71.15;100969.75;5051871;28;20490;-82
2023/03/18 05:48:05;;;;;;;0.08;0.08;;;;;;;12.40;72.16;100958.28;5051591;28;20502;-82
2023/03/18 05:50:35;;;;;;;0.10;0.10;;;;;;;12.48;71.20;100958.13;5049651;28;20029;-82
2023/03/18 05:53:02;;;;;;;0.10;0.10;;;;;;;12.49;70.14;100955.41;5044107;28;20088;-82
2023/03/18 05:55:29;;;;;;;0.30;0.30;;;;;;;12.50;70.13;100956.28;5046895;28;20086;-82
2023/03/18 05:57:57;;;;;;;0.10;0.10;;;;;;;12.49;70.30;100946.59;5043785;28;20037;-82
2023/03/18 06:00:24;;;;;;;0.10;0.10;;;;;;;12.49;70.45;100954.56;5051216;28;20041;-82
2023/03/18 06:02:52;;;;;;;0.10;0.10;;;;;;;12.48;70.36;100956.31;5046907;28;20486;-81
2023/03/18 06:05:19;;;;;;;0.00;0.00;;;;;;;12.46;70.29;100966.09;5039576;28;20048;-82
2023/03/18 06:07:46;;;;;;;0.10;0.10;;;;;;;12.46;70.15;100968.75;5040076;28;20034;-82
2023/03/18 06:10:12;;;;;;;0.40;0.40;;;;;;;12.43;70.29;100971.50;5043377;28;20056;-82
2023/03/18 06:12:40;;;;;;;0.05;0.05;;;;;;;12.38;69.96;100963.66;5046146;28;20033;-81
2023/03/18 06:15:07;;;;;;;0.38;0.38;;;;;;;12.33;69.98;100975.31;5046351;28;20379;-81
2023/03/18 06:17:34;;;;;;;0.32;0.32;;;;;;;12.25;69.94;100976.38;5045040;28;20108;-81
2023/03/18 06:20:00;;;;;;;0.10;0.10;;;;;;;12.16;69.86;100984.56;5044656;28;20101;-81
2023/03/18 06:22:26;;;;;;;0.00;0.00;;;;;;;12.10;70.01;100995.34;5049040;28;20033;-80
2023/03/18 06:24:53;;;;;;;0.10;0.10;;;;;;;12.04;70.28;100990.19;5047072;28;20041;-80
2023/03/18 06:27:19;;;;;;;0.20;0.20;;;;;;;12.04;70.19;100996.38;5047059;28;20030;-80
2023/03/18 06:29:45;;;;;;;0.10;0.10;;;;;;;12.07;70.26;101003.38;5056137;28;20029;-80
2023/03/18 06:32:11;;;;;;;0.10;0.10;;;;;;;12.09;70.28;100998.94;5051229;28;20048;-81
2023/03/18 06:34:37;;;;;;;0.10;0.10;;;;;;;12.09;70.86;101002.44;5056028;28;20048;-81
2023/03/18 06:37:04;;;;;;;0.10;0.10;;;;;;;12.09;70.84;101007.75;5051922;28;20092;-81
2023/03/18 06:39:30;;;;;;;0.10;0.10;;;;;;;12.11;70.63;101018.34;5054722;28;20056;-84
2023/03/18 06:41:56;;;;;;;0.38;0.38;;;;;;;12.11;71.24;101013.03;5060038;28;20036;-81
2023/03/18 06:44:23;;;;;;;0.00;0.00;;;;;;;12.12;70.66;101015.66;5053014;28;20031;-80
2023/03/18 06:46:49;;;;;;;0.20;0.20;;;;;;;12.11;70.74;101021.88;5043553;28;20028;-80
2023/03/18 06:49:15;;;;;;;0.00;0.00;;;;;;;12.13;70.64;101028.00;5043885;28;20256;-83
2023/03/18 06:51:42;;;;;;;0.10;0.10;;;;;;;12.18;70.90;101024.41;5044650;28;20389;-83
2023/03/18 06:54:08;;;;;;;0.10;0.10;;;;;;;12.23;70.98;101017.19;5041943;28;20029;-81
2023/03/18 06:56:37;;;;;;;0.10;0.10;;;;;;;12.29;70.85;101030.31;5050106;28;20061;-81
2023/03/18 06:59:04;;;;;;;0.10;0.10;;;;;;;12.30;72.06;101029.41;5050865;28;20029;-82
2023/03/18 07:01:31;;;;;;;0.20;0.20;;;;;;;12.34;71.13;101035.53;5051087;28;20045;-82
2023/03/18 07:03:59;;;;;;;0.10;0.10;;;;;;;12.39;71.10;101030.97;5047698;28;20056;-81
2023/03/18 07:06:25;;;;;;;0.08;0.08;;;;;;;12.42;71.41;101036.19;5045927;28;20067;-81
2023/03/18 07:08:53;;;;;;;0.13;0.13;;;;;;;12.42;71.16;101041.50;5038878;28;20037;-82
2023/03/18 07:11:20;;;;;;;0.17;0.17;;;;;;;12.39;71.74;101038.94;5052264;28;20024;-80
2023/03/18 07:13:47;;;;;;;0.30;0.30;;;;;;;12.36;71.54;101031.91;5050967;28;20559;-80
2023/03/18 07:16:13;;;;;;;0.05;0.05;;;;;;;12.37;71.75;101040.75;5049961;28;20029;-80
2023/03/18 07:18:39;;;;;;;0.60;0.60;;;;;;;12.38;71.02;101039.84;5046667;28;20099;-81
2023/03/18 07:21:06;;;;;;;0.10;0.10;;;;;;;12.38;71.53;101047.81;5053168;28;20586;-81
2023/03/18 07:23:33;;;;;;;0.10;0.10;;;;;;;12.38;71.06;101047.81;5043519;28;21920;-80
2023/03/18 07:25:59;;;;;;;0.10;0.10;;;;;;;12.37;71.42;101046.06;5043490;28;20021;-81
2023/03/18 07:28:25;;;;;;;0.15;0.15;;;;;;;12.37;72.25;101046.06;5054942;28;20384;-82
2023/03/18 07:30:51;;;;;;;0.10;0.10;;;;;;;12.41;72.22;101047.72;5043872;28;21510;-82
2023/03/18 07:33:18;;;;;;;0.65;0.65;;;;;;;12.40;72.64;101049.53;5048523;28;20095;-81
2023/03/18 07:35:44;;;;;;;0.10;0.10;;;;;;;12.41;71.34;101047.72;5048468;28;20048;-83
2023/03/18 07:38:11;;;;;;;0.10;0.10;;;;;;;12.42;72.89;101053.03;5053277;28;20029;-82
2023/03/18 07:40:37;;;;;;;0.50;0.50;;;;;;;12.46;72.85;101053.78;5052654;28;20497;-82
2023/03/18 07:43:05;;;;;;;0.65;0.65;;;;;;;12.50;72.99;101051.94;5047525;28;20044;-82
2023/03/18 07:45:31;;;;;;;0.10;0.10;;;;;;;12.49;73.96;101051.09;5046180;28;21427;-82
2023/03/18 07:47:57;;;;;;;0.10;0.10;;;;;;;12.57;73.67;101046.47;5048185;28;20160;-82
2023/03/18 07:50:23;;;;;;;0.85;0.85;;;;;;;12.60;73.19;101049.03;5046263;28;20033;-79
2023/03/18 07:52:50;;;;;;;0.25;0.25;;;;;;;12.65;73.89;101056.91;5039350;28;20033;-82
2023/03/18 07:55:17;;;;;;;0.10;0.10;;;;;;;12.68;73.50;101051.47;5040738;28;20039;-82
2023/03/18 07:57:43;;;;;;;0.10;0.10;;;;;;;12.69;74.29;101044.41;5046367;28;20040;-81
2023/03/18 08:00:11;;;;;;;0.40;0.40;;;;;;;12.78;74.08;101046.81;5037277;28;20188;-83
2023/03/18 08:02:37;;;;;;;0.10;0.10;;;;;;;12.84;73.85;101045.78;5043145;28;20021;-82
2023/03/18 08:05:05;;;;;;;0.52;0.52;;;;;;;12.85;74.48;101048.41;5046729;28;20037;-86
2023/03/18 08:07:32;;;;;;;0.63;0.63;;;;;;;12.90;74.11;101049.16;5041670;28;20124;-84
2023/03/18 08:09:59;;;;;;;1.73;1.63;;;;;;;12.97;74.01;101046.31;5045157;28;20117;-84
2023/03/18 08:12:25;;;;;;;0.28;0.28;;;;;;;13.00;73.50;101047.13;5042293;28;20132;-84
2023/03/18 08:14:51;;;;;;;1.23;0.90;;;;;;;13.03;73.67;101048.81;5050754;28;20044;-85
2023/03/18 08:17:18;;;;;;;0.28;0.28;;;;;;;13.15;73.07;101051.16;5039495;28;20025;-85
2023/03/18 08:19:44;;;;;;;0.68;0.68;;;;;;;13.21;73.13;101056.31;5039694;28;20036;-84
2023/03/18 08:22:10;;;;;;;0.10;0.10;;;;;;;13.30;72.74;101041.00;5040490;28;20034;-85
2023/03/18 08:24:37;;;;;;;1.88;0.82;;;;;;;13.39;72.41;101044.28;5049875;28;20083;-84
2023/03/18 08:27:04;;;;;;;0.10;0.10;;;;;;;13.41;72.33;101042.47;5045870;28;20036;-84
2023/03/18 08:29:31;;;;;;;1.30;0.80;;;;;;;13.47;71.93;101051.19;5040134;28;20035;-85
2023/03/18 08:31:57;;;;;;;0.20;0.20;;;;;;;13.48;72.21;101047.63;5049127;28;20024;-85
2023/03/18 08:34:24;;;;;;;0.25;0.25;;;;;;;13.59;72.03;101049.06;5042572;28;20060;-85
2023/03/18 08:36:50;;;;;;;0.20;0.20;;;;;;;13.68;71.94;101039.03;5042577;28;20390;-85
2023/03/18 08:39:16;;;;;;;0.15;0.15;;;;;;;13.82;71.23;101047.50;5055795;28;20025;-85
2023/03/18 08:41:42;;;;;;;0.13;0.13;;;;;;;13.85;70.91;101057.19;5045911;28;20100;-84
2023/03/18 08:44:09;;;;;;;0.20;0.20;;;;;;;13.95;70.39;101065.78;5055001;28;20033;-84
2023/03/18 08:46:36;;;;;;;0.57;0.57;;;;;;;13.97;70.29;101070.13;5046515;28;20025;-84
2023/03/18 08:49:03;;;;;;;0.32;0.32;;;;;;;13.99;69.87;101072.75;5047241;28;20030;-85
2023/03/18 08:51:29;;;;;;;0.88;0.88;;;;;;;14.11;69.47;101069.69;5048419;28;20025;-83
2023/03/18 08:53:56;;;;;;;0.40;0.40;;;;;;;14.13;68.89;101086.53;5054691;28;20041;-83
2023/03/18 08:56:22;;;;;;;0.13;0.13;;;;;;;14.19;68.84;101083.66;5049999;28;20032;-85
2023/03/18 08:58:48;;;;;;;0.10;0.10;;;;;;;14.13;69.31;101091.84;5047615;28;20274;-85
2023/03/18 09:01:15;;;;;;;0.47;0.47;;;;;;;14.32;69.58;101097.47;5046239;28;20053;-85
2023/03/18 09:03:41;;;;;;;0.68;0.68;;;;;;;14.48;69.04;101089.84;5045628;28;20032;-84
2023/03/18 09:06:08;;;;;;;0.20;0.20;;;;;;;14.60;68.18;101098.38;5056468;28;20053;-84
2023/03/18 09:08:34;;;;;;;0.10;0.10;;;;;;;14.65;67.13;101093.78;5046965;28;20032;-83
2023/03/18 09:11:01;;;;;;;2.38;1.55;;;;;;;14.68;67.03;101091.03;5037771;28;20029;-84
2023/03/18 09:13:27;;;;;;;0.73;0.73;;;;;;;14.70;67.42;101107.84;5037897;28;20060;-84
2023/03/18 09:15:53;;;;;;;0.20;0.20;;;;;;;14.73;67.17;101110.44;5045526;28;20048;-84
2023/03/18 09:18:21;;;;;;;0.60;0.60;;;;;;;14.74;66.95;101116.63;5048689;28;20035;-85
2023/03/18 09:20:47;;;;;;;2.30;1.00;;;;;;;14.86;66.98;101109.06;5045944;28;20029;-84
2023/03/18 09:23:17;;;;;;;0.65;0.65;;;;;;;14.90;66.19;101120.50;5049396;28;20030;-85
2023/03/18 09:25:45;;;;;;;0.20;0.20;;;;;;;14.98;65.88;101114.94;5049415;28;20030;-85
2023/03/18 09:28:13;;;;;;;0.35;0.35;;;;;;;15.06;65.51;101112.84;5042356;28;20041;-86
2023/03/18 09:30:40;;;;;;;1.77;1.67;;;;;;;15.16;65.43;101110.75;5046464;28;20071;-86
2023/03/18 09:33:07;;;;;;;1.27;1.27;;;;;;;15.29;65.06;101101.38;5043115;28;20572;-86
2023/03/18 09:35:43;;;;;;;0.60;0.60;;;;;;;15.33;64.26;101099.50;5045367;28;20021;-85
2023/03/18 09:38:23;;;;;;;0.35;0.35;;;;;;;15.45;64.57;101088.38;5054586;28;20037;-85
2023/03/18 09:46:43;;;;;;;1.10;1.05;;;;;;;15.44;63.51;101097.28;5110388;27;20421;-87
2023/03/18 09:52:25;;;;;;;2.45;0.90;;;;;;;15.50;64.07;101089.06;5094239;27;20408;-85
2023/03/18 09:55:04;;;;;;;0.30;0.30;;;;;;;15.57;64.08;101092.38;5074425;28;20147;-87
2023/03/18 09:57:37;;;;;;;0.00;0.00;;;;;;;15.69;63.91;101096.41;5074749;28;20024;-85
2023/03/18 10:03:09;;;;;;;0.10;0.10;;;;;;;15.85;62.49;101102.94;4583923;27;14873273;-87
2023/03/18 10:05:45;;;;;;;0.20;0.20;;;;;;;15.86;62.12;101098.44;5108629;28;20032;-86
2023/03/18 10:14:36;;;;;;;1.70;1.60;;;;;;;16.04;62.08;101096.88;5064178;28;20462;-85
2023/03/18 10:19:47;;;;;;;0.10;0.10;;;;;;;16.08;61.54;101097.63;5077900;28;20394;-86
2023/03/18 10:22:29;;;;;;;0.70;0.70;;;;;;;16.22;62.12;101100.63;5071672;28;20028;-85
2023/03/18 10:30:35;;;;;;;0.88;0.65;;;;;;;16.28;59.97;101105.72;5074285;27;20447;-85
2023/03/18 10:33:46;;;;;;;0.10;0.10;;;;;;;16.35;59.75;101106.38;5056159;28;20033;-83
2023/03/18 10:39:02;;;;;;;0.00;0.00;;;;;;;16.37;60.45;101109.84;5075274;28;20396;-86
2023/03/18 10:41:36;;;;;;;0.10;0.10;;;;;;;16.45;60.08;101112.22;5059284;28;20067;-86
2023/03/18 10:44:22;;;;;;;0.93;0.93;;;;;;;16.49;60.24;101106.66;5054797;28;20041;-86
2023/03/18 10:46:57;;;;;;;0.30;0.30;;;;;;;16.58;60.11;101112.59;5057170;28;20108;-86
2023/03/18 10:49:29;;;;;;;0.70;0.70;;;;;;;16.61;60.39;101113.34;5057561;28;20025;-86
2023/03/18 10:52:06;;;;;;;0.47;0.47;;;;;;;16.67;60.11;101117.53;5055770;28;20037;-85
2023/03/18 10:54:51;;;;;;;2.60;1.88;;;;;;;16.68;59.36;101111.25;5052583;28;20029;-85
2023/03/18 10:57:20;;;;;;;0.55;0.55;;;;;;;16.74;60.21;101107.47;5049946;28;20036;-85
2023/03/18 10:59:48;;;;;;;0.50;0.50;;;;;;;16.71;59.57;101108.47;5055928;28;20047;-86
2023/03/18 11:02:31;;;;;;;0.40;0.38;;;;;;;16.86;59.44;101112.31;5053691;28;20052;-86
2023/03/18 11:05:04;;;;;;;0.47;0.38;;;;;;;16.87;59.06;101107.81;5053144;28;20394;-86
2023/03/18 11:07:31;;;;;;;0.20;0.20;;;;;;;16.88;59.14;101112.25;5055164;28;20021;-84
2023/03/18 11:10:13;;;;;;;1.15;1.13;;;;;;;16.85;58.40;101118.59;5048573;28;20037;-84
2023/03/18 11:12:39;;;;;;;0.20;0.20;;;;;;;16.84;59.18;101106.16;5053962;28;20029;-84
2023/03/18 11:15:10;;;;;;;0.63;0.63;;;;;;;16.82;58.85;101111.56;5053273;28;20032;-83
2023/03/18 11:17:37;;;;;;;0.10;0.10;;;;;;;16.77;59.05;101107.34;5055318;28;20018;-84
2023/03/18 11:22:50;;;;;;;1.42;1.33;;;;;;;16.60;59.21;101106.25;5062782;28;20907;-84
2023/03/18 11:25:22;;;;;;;0.13;0.13;;;;;;;16.55;59.34;101110.03;5069358;28;20082;-85
2023/03/18 11:27:56;;;;;;;1.65;1.10;;;;;;;16.49;59.70;101101.31;5069383;22;20030;-83
2023/03/18 11:30:47;;;;;;;1.40;0.65;;;;;;;16.57;59.67;101102.81;5028626;28;20512;-85
2023/03/18 11:33:17;;;;;;;1.35;1.25;;;;;;;16.57;59.31;101100.13;5036235;28;20026;-84
2023/03/18 11:35:57;;;;;;;1.30;1.20;;;;;;;16.73;59.50;101100.38;5033669;28;20029;-85
2023/03/18 11:44:00;;;;;;;0.10;0.10;;;;;;;16.89;58.74;101100.63;5076777;27;20379;-86
2023/03/18 11:46:39;;;;;;;0.63;0.35;;;;;;;16.98;58.85;101101.13;5076371;28;20331;-85
2023/03/18 11:49:10;;;;;;;0.15;0.15;;;;;;;16.99;58.49;101104.66;5074512;27;20051;-86
2023/03/18 11:52:05;;;;;;;1.05;1.05;;;;;;;17.11;58.48;101105.97;5074150;27;20032;-86
2023/03/18 11:54:58;;;;;;;0.10;0.10;;;;;;;17.10;57.70;101102.38;5065193;28;20021;-85
2023/03/18 11:58:04;;;;;;;0.20;0.20;;;;;;;17.04;56.27;101113.34;5067824;28;20035;-86
2023/03/18 12:00:41;;;;;;;0.30;0.30;;;;;;;16.97;56.60;101110.09;5067184;28;20025;-87
2023/03/18 12:03:30;;;;;;;0.95;0.95;;;;;;;17.03;56.72;101102.72;5073207;27;20040;-85
2023/03/18 12:09:20;;;;;;;0.35;0.35;;;;;;;17.04;56.29;101094.63;5155001;27;20626;-84
2023/03/18 12:15:13;;;;;;;0.68;0.68;;;;;;;17.46;58.03;101087.47;5117759;27;20398;-85
2023/03/18 12:18:02;;;;;;;0.10;0.10;;;;;;;17.68;56.37;101084.66;5107554;28;20036;-84
2023/03/18 12:20:50;;;;;;;0.25;0.25;;;;;;;17.83;54.42;101088.47;5109578;28;20378;-84